Time;durP1;ratioP1;P1;durP2;ratioP2;P2;SDS_P1;SDS_P2;PMS_P1;PMS_P2;Temp;Humidity;BMP_temperature;BMP_pressure;BME280_temperature;BME280_humidity;BME280_pressure;Samples;Min_cycle;Max_cycle;Signal;HPM_P1;HPM_P2
2022/04/11 00:00:18;;;;;;;4.47;2.15;;;;;;;2.49;100.00;101169.72;5211003;28;20039;-76
2022/04/11 00:02:48;;;;;;;4.53;1.80;;;;;;;2.53;100.00;101168.03;5210932;28;20056;-75
2022/04/11 00:05:18;;;;;;;5.80;2.20;;;;;;;2.32;100.00;101167.91;5215497;28;20425;-77
2022/04/11 00:07:49;;;;;;;5.22;1.90;;;;;;;2.29;100.00;101167.88;5215851;28;20056;-77
2022/04/11 00:10:20;;;;;;;4.03;1.77;;;;;;;2.30;100.00;101172.19;5217256;28;20068;-77
2022/04/11 00:12:50;;;;;;;4.25;1.73;;;;;;;2.25;100.00;101158.41;5217418;28;20031;-77
2022/04/11 00:15:20;;;;;;;5.72;1.92;;;;;;;2.20;100.00;101171.25;5213852;28;20487;-77
2022/04/11 00:17:50;;;;;;;4.22;2.22;;;;;;;2.15;100.00;101169.50;5218210;28;20025;-78
2022/04/11 00:20:21;;;;;;;6.05;1.80;;;;;;;2.15;100.00;101174.66;5219643;28;20043;-76
2022/04/11 00:22:51;;;;;;;4.28;2.10;;;;;;;2.10;100.00;101173.75;5203284;28;20087;-76
2022/04/11 00:25:21;;;;;;;6.60;2.08;;;;;;;2.06;100.00;101177.16;5215283;28;20111;-76
2022/04/11 00:27:54;;;;;;;6.53;2.08;;;;;;;2.14;100.00;101178.09;5214275;28;20025;-76
2022/04/11 00:30:25;;;;;;;3.60;1.90;;;;;;;2.16;100.00;101173.81;5216539;28;20021;-78
2022/04/11 00:32:55;;;;;;;3.42;2.03;;;;;;;2.07;100.00;101169.44;5217897;28;20021;-78
2022/04/11 00:35:25;;;;;;;5.60;1.83;;;;;;;2.09;100.00;101172.00;5215008;28;20025;-75
2022/04/11 00:37:56;;;;;;;4.25;1.65;;;;;;;2.00;100.00;101169.38;5218443;28;20021;-75
2022/04/11 00:40:26;;;;;;;3.88;2.00;;;;;;;2.03;100.00;101177.97;5216908;28;20025;-76
2022/04/11 00:42:56;;;;;;;5.20;2.13;;;;;;;2.04;100.00;101171.13;5217254;28;20026;-74
2022/04/11 00:45:26;;;;;;;3.72;1.83;;;;;;;2.02;100.00;101171.09;5216197;28;20056;-76
2022/04/11 00:47:57;;;;;;;4.20;1.90;;;;;;;1.94;100.00;101166.72;5218010;28;20032;-76
2022/04/11 00:50:28;;;;;;;5.93;2.33;;;;;;;1.94;100.00;101171.88;5218748;28;20036;-78
2022/04/11 00:52:59;;;;;;;5.85;1.90;;;;;;;1.90;100.00;101180.44;5220523;28;20504;-75
2022/04/11 00:55:29;;;;;;;4.22;1.83;;;;;;;1.86;100.00;101173.56;5218073;28;20033;-76
2022/04/11 00:58:00;;;;;;;4.53;1.90;;;;;;;1.88;100.00;101177.00;5219240;28;20025;-75
2022/04/11 01:00:31;;;;;;;6.15;1.80;;;;;;;1.86;100.00;101170.97;5219680;28;20031;-76
2022/04/11 01:03:01;;;;;;;3.97;1.85;;;;;;;1.83;100.00;101169.22;5218724;28;20169;-77
2022/04/11 01:05:31;;;;;;;5.25;1.80;;;;;;;1.85;100.00;101170.09;5218947;28;20048;-77
2022/04/11 01:08:06;;;;;;;4.57;1.70;;;;;;;1.84;100.00;101170.09;5217734;28;20075;-77
2022/04/11 01:10:36;;;;;;;5.40;1.88;;;;;;;1.80;100.00;101170.94;5218509;28;20044;-74
2022/04/11 01:13:07;;;;;;;3.85;1.83;;;;;;;1.86;100.00;101170.97;5213288;28;20120;-75
2022/04/11 01:15:37;;;;;;;4.38;1.83;;;;;;;1.90;100.00;101160.72;5199558;28;20028;-76
2022/04/11 01:18:07;;;;;;;6.82;2.35;;;;;;;1.89;100.00;101171.00;5199140;28;20545;-77
2022/04/11 01:20:38;;;;;;;6.00;2.15;;;;;;;1.88;100.00;101172.72;5217691;28;20048;-77
2022/04/11 01:23:08;;;;;;;4.05;1.77;;;;;;;1.81;100.00;101175.22;5217803;28;20310;-77
2022/04/11 01:25:39;;;;;;;5.35;2.10;;;;;;;1.80;100.00;101168.34;5216120;28;20056;-77
2022/04/11 01:28:09;;;;;;;2.95;1.80;;;;;;;1.80;100.00;101166.63;5224276;28;20025;-75
2022/04/11 01:30:40;;;;;;;6.82;1.75;;;;;;;1.84;100.00;101167.53;5222773;28;20112;-75
2022/04/11 01:33:18;;;;;;;3.90;1.70;;;;;;;1.80;100.00;101173.50;5224768;28;20379;-75
2022/04/11 01:35:49;;;;;;;4.70;1.65;;;;;;;1.84;100.00;101164.94;5217543;28;20036;-77
2022/04/11 01:38:19;;;;;;;3.38;1.50;;;;;;;1.88;100.00;101171.84;5225331;28;20111;-77
2022/04/11 01:40:54;;;;;;;3.40;1.85;;;;;;;1.89;100.00;101174.44;5203122;28;20025;-75
2022/04/11 01:43:25;;;;;;;8.55;1.98;;;;;;;1.96;100.00;101173.63;5218617;28;20025;-77
2022/04/11 01:45:55;;;;;;;3.60;1.77;;;;;;;2.10;100.00;101168.59;5216905;28;20029;-76
2022/04/11 01:48:26;;;;;;;6.95;1.90;;;;;;;2.07;100.00;101163.41;5220200;28;20032;-76
2022/04/11 01:50:56;;;;;;;7.30;1.90;;;;;;;1.96;100.00;101167.63;5222111;28;20090;-76
2022/04/11 01:53:26;;;;;;;3.28;1.67;;;;;;;2.09;100.00;101167.75;5219593;28;20055;-76
2022/04/11 01:55:56;;;;;;;4.70;1.80;;;;;;;1.92;100.00;101159.00;5217105;28;20437;-77
2022/04/11 01:58:27;;;;;;;4.75;1.73;;;;;;;1.89;100.00;101159.00;5220885;28;20031;-77
2022/04/11 02:00:58;;;;;;;4.82;2.00;;;;;;;1.77;100.00;101159.72;5220474;28;20041;-77
2022/04/11 02:03:29;;;;;;;3.78;1.90;;;;;;;1.71;100.00;101157.09;5217970;28;20029;-77
2022/04/11 02:05:59;;;;;;;4.82;1.70;;;;;;;1.66;100.00;101158.75;5220693;28;20109;-77
2022/04/11 02:08:29;;;;;;;3.63;1.75;;;;;;;1.60;100.00;101156.97;5221113;28;20029;-77
2022/04/11 02:11:00;;;;;;;5.78;2.03;;;;;;;1.63;100.00;101154.47;5222867;28;20102;-76
2022/04/11 02:13:30;;;;;;;4.55;1.92;;;;;;;1.57;100.00;101145.81;5215952;28;20029;-75
2022/04/11 02:16:00;;;;;;;5.20;1.90;;;;;;;1.58;100.00;101148.38;5215640;28;20108;-74
2022/04/11 02:18:30;;;;;;;4.63;1.98;;;;;;;1.66;100.00;101149.31;5218015;28;20537;-74
2022/04/11 02:21:01;;;;;;;4.47;1.92;;;;;;;1.59;100.00;101157.81;5219680;28;20029;-74
2022/04/11 02:23:31;;;;;;;4.53;1.95;;;;;;;1.56;100.00;101147.50;5201262;28;20021;-75
2022/04/11 02:26:02;;;;;;;5.18;1.92;;;;;;;1.55;100.00;101162.97;5220243;28;20021;-75
2022/04/11 02:28:32;;;;;;;4.47;2.00;;;;;;;1.61;100.00;101150.97;5219694;28;20521;-77
2022/04/11 02:31:03;;;;;;;6.63;2.20;;;;;;;1.61;100.00;101145.81;5219161;28;20029;-76
2022/04/11 02:33:33;;;;;;;5.45;2.08;;;;;;;1.57;100.00;101154.38;5219220;28;20035;-77
2022/04/11 02:36:04;;;;;;;4.60;1.90;;;;;;;1.43;100.00;101153.38;5219327;28;20020;-74
2022/04/11 02:38:34;;;;;;;5.95;2.00;;;;;;;1.41;100.00;101154.22;5216828;28;20037;-77
2022/04/11 02:41:04;;;;;;;3.25;1.75;;;;;;;1.48;100.00;101153.44;5216127;28;20064;-77
2022/04/11 02:43:34;;;;;;;5.10;1.60;;;;;;;1.36;100.00;101149.03;5212397;28;20025;-77
2022/04/11 02:46:05;;;;;;;3.17;1.40;;;;;;;1.39;100.00;101149.03;5210221;28;20044;-77
2022/04/11 02:48:36;;;;;;;2.30;1.35;;;;;;;1.40;100.00;101144.78;5215922;28;20029;-77
2022/04/11 02:51:06;;;;;;;5.45;1.45;;;;;;;1.45;100.00;101143.97;5213977;28;20263;-76
2022/04/11 02:53:36;;;;;;;8.18;1.45;;;;;;;1.43;100.00;101148.22;5215483;28;20104;-77
2022/04/11 02:56:07;;;;;;;4.65;1.52;;;;;;;1.29;100.00;101136.94;5211887;28;20052;-75
2022/04/11 02:58:37;;;;;;;4.15;1.40;;;;;;;1.27;100.00;101136.03;5196261;28;20037;-76
2022/04/11 03:01:07;;;;;;;4.88;1.50;;;;;;;1.16;100.00;101134.19;5196167;28;20025;-74
2022/04/11 03:03:38;;;;;;;3.65;1.60;;;;;;;1.10;100.00;101135.00;5213860;28;20033;-77
2022/04/11 03:06:08;;;;;;;2.80;1.70;;;;;;;1.15;100.00;101128.22;5214903;28;20028;-77
2022/04/11 03:08:38;;;;;;;3.33;1.80;;;;;;;0.98;100.00;101126.28;5213118;28;20111;-77
2022/04/11 03:11:09;;;;;;;4.53;1.65;;;;;;;0.93;100.00;101121.06;5213488;28;20024;-75
2022/04/11 03:13:39;;;;;;;4.47;1.55;;;;;;;0.92;100.00;101121.06;5208261;28;20487;-75
2022/04/11 03:16:09;;;;;;;5.97;2.00;;;;;;;0.96;100.00;101125.41;5213718;28;20462;-77
2022/04/11 03:18:40;;;;;;;4.28;1.83;;;;;;;0.98;100.00;101132.31;5208638;28;20375;-76
2022/04/11 03:21:10;;;;;;;3.78;1.52;;;;;;;1.12;100.00;101112.75;5214087;28;20030;-76
2022/04/11 03:23:40;;;;;;;4.38;1.70;;;;;;;1.12;100.00;101117.88;5212084;28;20021;-74
2022/04/11 03:26:11;;;;;;;6.80;1.60;;;;;;;1.08;100.00;101110.97;5207677;28;20021;-74
2022/04/11 03:28:41;;;;;;;3.13;1.67;;;;;;;1.01;100.00;101114.31;5207677;28;20052;-75
2022/04/11 03:31:11;;;;;;;4.50;1.65;;;;;;;1.12;100.00;101119.59;5207580;28;20410;-75
2022/04/11 03:33:42;;;;;;;3.13;1.63;;;;;;;1.08;100.00;101116.09;5209549;28;20061;-77
2022/04/11 03:36:12;;;;;;;6.55;1.58;;;;;;;0.98;100.00;101116.88;5190907;28;20086;-77
2022/04/11 03:38:42;;;;;;;3.30;1.60;;;;;;;0.89;100.00;101113.31;5210786;28;20094;-77
2022/04/11 03:41:13;;;;;;;4.70;1.75;;;;;;;0.81;100.00;101118.38;5208828;28;20143;-77
2022/04/11 03:43:43;;;;;;;4.65;1.70;;;;;;;0.79;100.00;101117.50;5191880;28;20534;-76
2022/04/11 03:46:13;;;;;;;6.88;1.40;;;;;;;0.85;100.00;101116.69;5206806;28;20455;-77
2022/04/11 03:48:43;;;;;;;3.67;1.60;;;;;;;0.91;100.00;101115.03;5211610;28;20532;-77
2022/04/11 03:51:14;;;;;;;4.78;1.73;;;;;;;0.89;100.00;101115.91;5190452;28;20040;-76
2022/04/11 03:53:44;;;;;;;3.42;1.45;;;;;;;1.03;100.00;101112.63;5211071;28;20445;-74
2022/04/11 03:56:17;;;;;;;3.15;1.67;;;;;;;1.20;100.00;101110.25;5184060;28;20155;-76
2022/04/11 03:58:47;;;;;;;4.45;1.80;;;;;;;1.11;100.00;101105.88;5194025;28;20028;-76
2022/04/11 04:01:17;;;;;;;4.18;1.63;;;;;;;1.05;100.00;101110.94;5209837;28;20208;-76
2022/04/11 04:03:48;;;;;;;3.08;1.60;;;;;;;1.21;100.00;101112.81;5210912;28;20480;-76
2022/04/11 04:06:20;;;;;;;4.35;1.50;;;;;;;1.06;100.00;101116.94;5209968;28;20111;-74
2022/04/11 04:08:50;;;;;;;2.30;1.27;;;;;;;0.93;100.00;101113.34;5210977;28;20025;-77
2022/04/11 04:11:20;;;;;;;8.32;2.00;;;;;;;0.99;100.00;101118.59;5209057;28;20021;-76
2022/04/11 04:13:50;;;;;;;3.65;1.67;;;;;;;0.95;100.00;101116.84;5210117;28;20404;-75
2022/04/11 04:16:21;;;;;;;5.55;1.65;;;;;;;0.94;100.00;101116.81;5204736;28;20025;-75
2022/04/11 04:18:51;;;;;;;4.85;1.60;;;;;;;1.12;100.00;101107.59;5211910;28;20029;-76
2022/04/11 04:21:21;;;;;;;4.30;1.65;;;;;;;1.08;100.00;101116.09;5210226;28;20407;-76
2022/04/11 04:23:51;;;;;;;5.43;1.73;;;;;;;1.20;100.00;101120.53;5211867;28;20025;-77
2022/04/11 04:26:22;;;;;;;3.75;1.85;;;;;;;1.25;100.00;101124.88;5204135;28;20052;-77
2022/04/11 04:28:52;;;;;;;3.83;1.65;;;;;;;1.27;100.00;101120.59;5202172;28;20509;-77
2022/04/11 04:31:22;;;;;;;3.75;1.70;;;;;;;1.36;100.00;101127.53;5204074;28;20314;-76
2022/04/11 04:33:52;;;;;;;4.82;2.10;;;;;;;1.47;100.00;101126.84;5189062;28;20104;-77
2022/04/11 04:36:23;;;;;;;3.78;1.38;;;;;;;1.52;100.00;101129.41;5209134;28;20014;-77
2022/04/11 04:38:53;;;;;;;5.85;1.88;;;;;;;1.53;100.00;101126.88;5209986;28;20021;-77
2022/04/11 04:41:23;;;;;;;6.22;1.75;;;;;;;1.62;100.00;101126.97;5207675;28;20048;-76
2022/04/11 04:43:54;;;;;;;4.68;1.83;;;;;;;1.71;100.00;101129.63;5200696;28;20025;-75
2022/04/11 04:46:24;;;;;;;5.22;1.70;;;;;;;1.78;100.00;101124.53;5198657;28;20113;-77
2022/04/11 04:48:54;;;;;;;5.57;1.67;;;;;;;1.84;100.00;101128.88;5197642;28;20017;-76
2022/04/11 04:51:25;;;;;;;4.38;1.80;;;;;;;1.70;100.00;101134.75;5206096;28;20176;-77
2022/04/11 04:53:55;;;;;;;4.13;1.90;;;;;;;1.79;100.00;101133.97;5205602;28;20083;-75
2022/04/11 04:56:28;;;;;;;4.25;1.80;;;;;;;1.83;100.00;101137.47;5202332;28;20410;-76
2022/04/11 04:58:59;;;;;;;4.38;1.63;;;;;;;1.92;100.00;101142.66;5206626;28;20032;-77
2022/04/11 05:01:29;;;;;;;8.32;1.85;;;;;;;2.05;100.00;101129.91;5188230;28;20199;-77
2022/04/11 05:03:59;;;;;;;6.40;1.98;;;;;;;2.03;100.00;101125.59;5210635;28;20541;-75
2022/04/11 05:06:29;;;;;;;3.00;1.50;;;;;;;2.03;100.00;101130.75;5209728;28;20105;-76
2022/04/11 05:09:00;;;;;;;2.55;1.48;;;;;;;2.01;100.00;101125.56;5192271;28;20032;-74
2022/04/11 05:11:30;;;;;;;6.93;1.73;;;;;;;2.10;100.00;101135.94;5209593;28;20517;-77
2022/04/11 05:14:00;;;;;;;5.45;1.75;;;;;;;2.16;100.00;101125.69;5208180;28;20479;-76
2022/04/11 05:16:31;;;;;;;2.67;1.58;;;;;;;2.37;100.00;101130.13;5204137;28;20028;-77
2022/04/11 05:19:02;;;;;;;5.72;1.60;;;;;;;2.37;100.00;101128.38;5209635;28;20032;-77
2022/04/11 05:21:33;;;;;;;7.18;2.00;;;;;;;2.32;100.00;101124.94;5211356;28;20102;-76
2022/04/11 05:24:03;;;;;;;2.88;1.40;;;;;;;2.36;100.00;101125.81;5193188;28;20037;-75
2022/04/11 05:26:34;;;;;;;3.85;1.80;;;;;;;2.46;100.00;101127.56;5211137;28;20083;-77
2022/04/11 05:29:04;;;;;;;4.50;1.95;;;;;;;2.61;100.00;101127.66;5211650;28;20037;-76
2022/04/11 05:31:34;;;;;;;5.63;1.83;;;;;;;2.45;100.00;101138.75;5210244;28;20039;-76
2022/04/11 05:34:05;;;;;;;4.40;1.83;;;;;;;2.48;100.00;101136.22;5212728;28;20128;-77
2022/04/11 05:36:35;;;;;;;5.13;1.70;;;;;;;2.86;100.00;101135.53;5212047;28;20036;-75
2022/04/11 05:39:06;;;;;;;6.30;1.90;;;;;;;2.95;100.00;101130.41;5210553;28;20034;-77
2022/04/11 05:41:36;;;;;;;3.90;1.50;;;;;;;2.86;100.00;101135.53;5204853;28;20079;-76
2022/04/11 05:44:06;;;;;;;4.57;1.50;;;;;;;2.78;100.00;101136.34;5204400;28;20025;-76
2022/04/11 05:46:37;;;;;;;6.93;1.73;;;;;;;2.69;100.00;101131.16;5191135;28;20028;-77
2022/04/11 05:49:07;;;;;;;5.47;1.90;;;;;;;2.91;100.00;101125.22;5211308;28;20037;-76
2022/04/11 05:51:37;;;;;;;4.65;1.80;;;;;;;2.85;100.00;101123.47;5211674;28;20060;-77
2022/04/11 05:54:07;;;;;;;5.90;1.80;;;;;;;2.88;100.00;101130.38;5213863;28;20083;-77
2022/04/11 05:56:38;;;;;;;4.18;1.70;;;;;;;2.74;100.00;101134.63;5215023;28;20402;-77
2022/04/11 05:59:08;;;;;;;5.53;2.00;;;;;;;2.67;100.00;101133.72;5194238;28;20026;-76
2022/04/11 06:01:40;;;;;;;3.60;1.60;;;;;;;2.84;100.00;101134.66;5215316;28;20033;-76
2022/04/11 06:04:10;;;;;;;4.13;1.80;;;;;;;2.80;100.00;101137.22;5213505;28;20475;-76
2022/04/11 06:06:40;;;;;;;3.92;1.95;;;;;;;2.78;100.00;101141.50;5219533;28;20040;-77
2022/04/11 06:09:11;;;;;;;6.45;2.10;;;;;;;2.78;100.00;101139.81;5216465;28;20025;-77
2022/04/11 06:11:41;;;;;;;8.98;2.00;;;;;;;2.87;100.00;101131.25;5216978;28;20477;-77
2022/04/11 06:14:11;;;;;;;3.67;1.65;;;;;;;2.72;100.00;101129.44;5194909;28;20273;-75
2022/04/11 06:16:41;;;;;;;6.15;2.20;;;;;;;3.03;100.00;101128.72;5222957;28;20033;-75
2022/04/11 06:19:12;;;;;;;5.25;2.00;;;;;;;3.41;100.00;101128.81;5199964;28;20479;-76
2022/04/11 06:21:43;;;;;;;4.13;1.98;;;;;;;3.38;100.00;101129.66;5212734;28;20091;-77
2022/04/11 06:24:13;;;;;;;5.65;1.90;;;;;;;3.76;100.00;101121.13;5220177;28;20284;-76
2022/04/11 06:26:44;;;;;;;4.30;2.00;;;;;;;3.95;100.00;101128.00;5213550;28;20060;-76
2022/04/11 06:29:14;;;;;;;5.00;2.05;;;;;;;4.22;100.00;101124.53;5220425;28;20033;-76
2022/04/11 06:31:45;;;;;;;6.18;2.20;;;;;;;4.60;100.00;101123.59;5215348;28;20076;-77
2022/04/11 06:34:15;;;;;;;6.00;2.00;;;;;;;4.89;100.00;101118.31;5218601;28;20023;-77
2022/04/11 06:36:45;;;;;;;5.00;1.80;;;;;;;4.94;100.00;101117.44;5216087;28;20032;-77
2022/04/11 06:39:15;;;;;;;4.57;1.70;;;;;;;5.34;99.97;101121.53;5218299;28;20035;-77
2022/04/11 06:41:53;;;;;;;5.63;2.00;;;;;;;5.37;100.00;101126.72;5231965;22;20044;-80
2022/04/11 06:44:33;;;;;;;8.35;2.08;;;;;;;5.75;99.49;101128.16;5211013;28;20040;-81
2022/04/11 06:47:17;;;;;;;3.70;1.48;;;;;;;6.29;95.52;101122.53;5215287;28;20022;-80
2022/04/11 06:49:50;;;;;;;3.78;1.48;;;;;;;7.68;91.38;101118.19;5212306;28;20056;-81
2022/04/11 06:52:21;;;;;;;6.18;1.73;;;;;;;9.10;83.85;101112.13;5182134;28;20033;-81
2022/04/11 06:54:51;;;;;;;4.32;1.50;;;;;;;10.52;76.93;101100.84;5201104;28;20387;-81
2022/04/11 06:57:21;;;;;;;3.28;1.33;;;;;;;11.47;71.37;101098.91;5185393;28;20037;-82
2022/04/11 06:59:52;;;;;;;2.22;1.30;;;;;;;11.44;69.84;101097.25;5203119;28;20032;-80
2022/04/11 07:02:22;;;;;;;6.55;1.40;;;;;;;12.23;66.48;101101.66;5191413;28;20032;-79
2022/04/11 07:04:53;;;;;;;4.38;1.40;;;;;;;11.32;69.21;101102.88;5195052;28;20048;-79
2022/04/11 07:07:23;;;;;;;5.80;1.23;;;;;;;11.51;68.07;101095.28;5192316;28;20100;-79
2022/04/11 07:09:54;;;;;;;3.65;1.20;;;;;;;11.75;68.19;101100.66;5195675;28;20121;-82
2022/04/11 07:12:25;;;;;;;6.68;1.58;;;;;;;11.68;69.13;101104.38;5191547;28;20050;-79
2022/04/11 07:14:56;;;;;;;6.25;1.50;;;;;;;12.84;68.86;101095.97;5189263;28;20080;-81
2022/04/11 07:17:28;;;;;;;4.47;1.40;;;;;;;12.96;65.99;101095.56;5195177;28;20025;-79
2022/04/11 07:19:58;;;;;;;4.85;1.63;;;;;;;12.48;69.42;101099.91;5195396;28;20033;-81
2022/04/11 07:22:29;;;;;;;3.05;1.00;;;;;;;13.31;67.30;101102.97;5191442;28;20034;-79
2022/04/11 07:25:03;;;;;;;4.47;1.33;;;;;;;12.96;66.24;101103.44;5197292;28;20048;-79
2022/04/11 07:27:33;;;;;;;5.10;1.50;;;;;;;13.56;65.29;101101.13;5199161;28;20788;-79
2022/04/11 07:30:04;;;;;;;2.50;1.00;;;;;;;12.18;67.69;101102.72;5188769;28;20038;-81
2022/04/11 07:32:34;;;;;;;3.38;1.30;;;;;;;11.74;68.41;101106.81;5191219;28;20591;-80
2022/04/11 07:35:05;;;;;;;3.30;1.20;;;;;;;14.50;63.56;101085.78;5191321;28;20482;-80
2022/04/11 07:37:35;;;;;;;3.60;1.05;;;;;;;13.43;61.79;101086.75;5192642;28;21003;-79
2022/04/11 07:40:07;;;;;;;6.72;1.30;;;;;;;14.81;61.70;101073.84;5192339;28;20029;-83
2022/04/11 07:42:37;;;;;;;3.47;1.35;;;;;;;15.50;57.22;101074.09;5190393;28;20040;-80
2022/04/11 07:45:08;;;;;;;4.07;1.10;;;;;;;17.50;56.76;101072.41;5191557;28;20457;-79
2022/04/11 07:47:38;;;;;;;5.55;1.40;;;;;;;16.57;55.05;101077.47;5195112;28;20526;-79
2022/04/11 07:50:09;;;;;;;4.30;1.40;;;;;;;17.03;56.13;101077.63;5176455;28;20112;-79
2022/04/11 07:52:40;;;;;;;3.25;1.30;;;;;;;18.41;53.77;101063.53;5190753;28;20269;-80
2022/04/11 07:55:13;;;;;;;4.15;1.23;;;;;;;18.32;54.26;101067.56;5186679;28;20544;-79
2022/04/11 07:57:43;;;;;;;3.92;1.40;;;;;;;16.09;53.35;101077.31;5195701;28;20063;-79
2022/04/11 08:00:14;;;;;;;5.32;1.10;;;;;;;16.68;57.13;101076.91;5192850;28;20483;-82
2022/04/11 08:02:44;;;;;;;4.75;1.40;;;;;;;16.65;54.94;101075.31;5193046;28;20044;-83
2022/04/11 08:05:19;;;;;;;2.90;1.25;;;;;;;18.29;54.01;101065.09;5192448;28;20033;-82
2022/04/11 08:07:50;;;;;;;6.53;1.50;;;;;;;16.81;54.95;101071.75;5191842;28;20029;-79
2022/04/11 08:10:23;;;;;;;4.90;1.40;;;;;;;18.52;53.05;101061.94;5195361;28;20031;-79
2022/04/11 08:12:55;;;;;;;4.70;1.52;;;;;;;16.98;53.53;101074.34;5194047;28;20021;-81
2022/04/11 08:15:28;;;;;;;2.85;1.50;;;;;;;20.11;49.13;101055.16;5182138;28;20025;-79
2022/04/11 08:17:59;;;;;;;3.75;1.42;;;;;;;18.95;51.47;101064.50;5190234;28;20493;-79
2022/04/11 08:20:29;;;;;;;5.78;1.30;;;;;;;19.03;47.41;101070.19;5192054;28;20022;-80
2022/04/11 08:23:00;;;;;;;3.35;1.30;;;;;;;18.79;48.90;101063.75;5194543;28;20487;-81
2022/04/11 08:25:30;;;;;;;3.85;1.27;;;;;;;18.32;50.02;101067.56;5193349;28;20387;-79
2022/04/11 08:28:00;;;;;;;4.93;1.20;;;;;;;17.44;50.31;101072.72;5191882;28;20495;-81
2022/04/11 08:30:30;;;;;;;3.13;1.20;;;;;;;18.50;49.51;101068.28;5192092;28;20112;-78
2022/04/11 08:33:01;;;;;;;3.17;1.30;;;;;;;20.46;47.45;101069.56;5191074;28;20291;-79
2022/04/11 08:35:31;;;;;;;4.30;1.40;;;;;;;20.01;47.61;101067.31;5191130;28;20642;-78
2022/04/11 08:38:01;;;;;;;4.07;1.30;;;;;;;17.25;52.82;101078.16;5189727;28;20276;-81
2022/04/11 08:40:32;;;;;;;4.00;1.20;;;;;;;16.80;53.38;101075.34;5191801;28;20052;-80
2022/04/11 08:43:02;;;;;;;4.10;1.33;;;;;;;19.37;50.00;101064.50;5190908;28;20272;-79
2022/04/11 08:45:33;;;;;;;3.33;1.20;;;;;;;19.58;48.83;101060.47;5189883;28;20042;-79
2022/04/11 08:48:03;;;;;;;4.60;1.45;;;;;;;20.29;47.32;101067.19;5189741;28;20120;-78
2022/04/11 08:50:34;;;;;;;3.22;1.10;;;;;;;18.67;47.63;101074.25;5191745;28;20064;-79
2022/04/11 08:53:04;;;;;;;3.83;1.48;;;;;;;19.14;49.04;101062.41;5193026;28;20065;-80
2022/04/11 08:55:35;;;;;;;4.05;1.50;;;;;;;17.92;48.64;101076.09;5191070;28;20026;-79
2022/04/11 08:58:05;;;;;;;2.95;1.00;;;;;;;17.24;49.53;101080.88;5192211;28;20446;-78
2022/04/11 09:00:35;;;;;;;3.13;1.20;;;;;;;18.08;49.62;101070.75;5191090;28;20033;-79
2022/04/11 09:03:06;;;;;;;4.88;1.13;;;;;;;18.59;48.38;101067.72;5190635;28;20786;-78
2022/04/11 09:05:36;;;;;;;2.08;1.00;;;;;;;18.91;47.76;101065.66;5191050;28;20040;-79
2022/04/11 09:08:07;;;;;;;4.75;1.90;;;;;;;18.98;48.48;101060.81;5191128;28;20037;-78
2022/04/11 09:10:38;;;;;;;6.28;1.52;;;;;;;17.83;48.52;101075.78;5192070;28;20045;-78
2022/04/11 09:13:09;;;;;;;4.07;1.40;;;;;;;18.03;48.76;101068.38;5190253;28;20092;-79
2022/04/11 09:15:43;;;;;;;3.08;1.50;;;;;;;18.53;48.19;101066.28;5187911;28;20440;-78
2022/04/11 09:18:13;;;;;;;2.72;1.20;;;;;;;17.90;49.83;101071.84;5188228;28;20526;-78
2022/04/11 09:20:44;;;;;;;5.70;1.57;;;;;;;16.41;50.33;101081.00;5192198;28;20212;-78
2022/04/11 09:23:21;;;;;;;3.03;1.27;;;;;;;16.36;52.12;101083.88;5188440;28;20281;-77
2022/04/11 09:25:52;;;;;;;3.35;1.30;;;;;;;16.42;52.13;101080.91;5183676;28;20312;-78
2022/04/11 09:28:22;;;;;;;4.47;2.00;;;;;;;16.82;50.31;101072.63;5184978;28;20393;-78
2022/04/11 09:30:52;;;;;;;3.87;1.70;;;;;;;15.73;53.01;101080.91;5192226;28;20694;-78
2022/04/11 09:33:23;;;;;;;4.30;1.70;;;;;;;15.15;53.34;101071.41;5189665;28;20277;-78
2022/04/11 09:35:53;;;;;;;6.03;2.53;;;;;;;15.10;54.47;101073.38;5188019;28;20339;-78
2022/04/11 09:38:35;;;;;;;4.88;2.00;;;;;;;14.71;56.12;101071.69;5187165;28;20229;-77
2022/04/11 09:41:06;;;;;;;7.75;3.65;;;;;;;15.12;55.01;101072.38;5191144;28;20382;-78
2022/04/11 09:43:36;;;;;;;6.30;2.40;;;;;;;14.77;55.10;101072.25;5185676;28;20488;-77
2022/04/11 09:46:06;;;;;;;6.70;3.63;;;;;;;14.61;56.19;101068.59;5187361;28;20125;-77
2022/04/11 09:48:37;;;;;;;3.47;1.60;;;;;;;14.94;58.18;101062.69;5189255;28;20754;-77
2022/04/11 09:51:15;;;;;;;4.40;1.80;;;;;;;14.57;55.57;101061.78;5193822;28;20090;-77
2022/04/11 09:53:46;;;;;;;4.00;1.92;;;;;;;14.95;55.41;101053.88;5179830;28;20483;-77
2022/04/11 09:56:19;;;;;;;6.20;1.95;;;;;;;15.04;55.92;101065.75;5185673;28;20029;-77
2022/04/11 09:58:50;;;;;;;3.53;2.03;;;;;;;15.35;55.05;101061.66;5187517;28;20025;-78
2022/04/11 10:01:23;;;;;;;6.10;2.45;;;;;;;15.17;55.50;101064.28;5190753;28;20270;-77
2022/04/11 10:03:54;;;;;;;4.03;1.75;;;;;;;13.84;56.70;101064.94;5195380;28;20060;-77
2022/04/11 10:06:24;;;;;;;5.18;2.13;;;;;;;14.30;59.00;101056.88;5190459;28;20123;-77
2022/04/11 10:08:55;;;;;;;4.47;2.22;;;;;;;14.56;56.62;101049.53;5187963;28;20096;-77
2022/04/11 10:11:26;;;;;;;7.07;2.25;;;;;;;14.53;56.85;101051.44;5194440;28;20055;-77
2022/04/11 10:13:57;;;;;;;4.50;2.63;;;;;;;14.30;54.49;101047.22;5187382;28;20059;-77
2022/04/11 10:16:27;;;;;;;7.65;2.58;;;;;;;13.74;56.76;101050.47;5186586;28;20022;-77
2022/04/11 10:19:04;;;;;;;7.40;2.65;;;;;;;14.12;56.97;101042.69;5187795;28;20112;-77
2022/04/11 10:21:40;;;;;;;5.78;2.53;;;;;;;14.04;56.47;101038.66;5192776;28;20032;-77
2022/04/11 10:24:29;;;;;;;6.10;2.63;;;;;;;13.76;58.80;101031.09;5176926;28;20486;-77
2022/04/11 10:27:20;;;;;;;8.57;2.38;;;;;;;14.30;56.63;101031.44;5185939;28;20041;-77
2022/04/11 10:29:55;;;;;;;8.43;3.15;;;;;;;14.09;55.10;101028.84;5186113;28;20434;-77
2022/04/11 10:32:27;;;;;;;8.18;4.03;;;;;;;13.72;53.90;101033.91;5194420;28;20030;-77
2022/04/11 10:35:18;;;;;;;8.90;4.07;;;;;;;13.58;54.15;101026.59;5192533;28;20030;-76
2022/04/11 10:37:48;;;;;;;5.60;3.15;;;;;;;13.64;55.08;101033.38;5173044;28;20494;-76
2022/04/11 10:40:19;;;;;;;6.30;2.53;;;;;;;13.76;56.79;101028.44;5190812;28;20096;-77
2022/04/11 10:43:01;;;;;;;7.28;3.10;;;;;;;13.41;55.78;101031.66;5190366;28;20025;-76
2022/04/11 10:45:39;;;;;;;8.25;3.00;;;;;;;13.13;55.60;101031.03;5187928;28;20116;-76
2022/04/11 10:48:12;;;;;;;5.70;2.70;;;;;;;13.34;54.19;101035.44;5187312;28;20033;-77
2022/04/11 10:50:43;;;;;;;6.53;3.00;;;;;;;13.34;54.06;101026.69;5194689;28;20612;-79
2022/04/11 10:53:25;;;;;;;10.05;3.70;;;;;;;13.27;53.92;101018.22;5192481;28;20026;-79
2022/04/11 10:56:06;;;;;;;7.30;3.22;;;;;;;13.14;57.44;101018.75;5191118;28;20026;-80
2022/04/11 10:58:48;;;;;;;7.72;3.10;;;;;;;13.41;55.76;101013.28;5187176;28;20033;-79
2022/04/11 11:01:55;;;;;;;6.40;2.35;;;;;;;13.31;53.62;101014.56;5186483;28;20075;-77
2022/04/11 11:04:27;;;;;;;6.18;3.95;;;;;;;13.64;56.55;101009.72;5150798;28;20046;-77
2022/04/11 11:07:23;;;;;;;6.32;2.47;;;;;;;13.70;56.32;101009.47;5189710;28;20029;-77
2022/04/11 11:09:56;;;;;;;5.73;2.50;;;;;;;13.71;57.09;101014.66;5186236;28;20360;-77
2022/04/11 11:12:27;;;;;;;6.43;3.25;;;;;;;13.62;55.87;101017.69;5189020;28;20327;-77
2022/04/11 11:15:17;;;;;;;4.43;2.40;;;;;;;13.69;55.97;101010.38;5188940;28;20017;-77
2022/04/11 11:17:58;;;;;;;5.88;2.92;;;;;;;13.43;56.29;101002.72;5182523;28;20494;-77
2022/04/11 11:20:33;;;;;;;5.47;2.45;;;;;;;13.01;53.43;101001.78;5189731;28;20090;-77
2022/04/11 11:23:21;;;;;;;5.80;2.50;;;;;;;13.34;55.88;101000.44;5192424;28;20026;-77
2022/04/11 11:25:54;;;;;;;6.80;2.72;;;;;;;13.51;57.45;100995.38;5186404;28;20072;-77
2022/04/11 11:28:28;;;;;;;6.05;2.47;;;;;;;13.63;56.42;100994.88;5185438;28;20034;-77
2022/04/11 11:30:58;;;;;;;4.43;2.40;;;;;;;13.37;54.21;100982.81;5191492;28;20068;-77
2022/04/11 11:33:29;;;;;;;4.65;2.20;;;;;;;13.31;55.00;100982.19;5193080;28;20053;-77
2022/04/11 11:35:59;;;;;;;5.25;2.50;;;;;;;13.23;53.87;100985.13;5191572;28;20041;-77
2022/04/11 11:38:31;;;;;;;4.55;2.30;;;;;;;13.46;54.20;100982.47;5184552;28;20072;-76
2022/04/11 11:41:05;;;;;;;6.55;2.20;;;;;;;13.70;54.64;100970.94;5191471;28;20029;-77
2022/04/11 11:43:36;;;;;;;4.22;2.13;;;;;;;13.89;55.63;100971.00;5184943;28;20100;-77